sensor_id;sensor_type;location;lat;lon;timestamp;pressure;altitude;pressure_sealevel;temperature;humidity
52137;BME280;38130;49.012;8.368;2022-08-19T00:01:33;99845.00;;;20.89;100.00
52137;BME280;38130;49.012;8.368;2022-08-19T00:04:06;99841.25;;;20.82;100.00
52137;BME280;38130;49.012;8.368;2022-08-19T00:06:33;99847.66;;;20.80;100.00
52137;BME280;38130;49.012;8.368;2022-08-19T00:09:00;99851.59;;;20.76;100.00
52137;BME280;38130;49.012;8.368;2022-08-19T00:11:27;99861.03;;;20.78;100.00
52137;BME280;38130;49.012;8.368;2022-08-19T00:13:55;99855.72;;;20.88;100.00
52137;BME280;38130;49.012;8.368;2022-08-19T00:16:24;99860.47;;;20.84;100.00
52137;BME280;38130;49.012;8.368;2022-08-19T00:18:53;99852.69;;;20.83;100.00
52137;BME280;38130;49.012;8.368;2022-08-19T00:21:20;99855.03;;;20.86;100.00
52137;BME280;38130;49.012;8.368;2022-08-19T00:23:47;99859.19;;;20.88;100.00
52137;BME280;38130;49.012;8.368;2022-08-19T00:26:13;99851.13;;;20.90;100.00
52137;BME280;38130;49.012;8.368;2022-08-19T00:28:40;99841.38;;;20.90;100.00
52137;BME280;38130;49.012;8.368;2022-08-19T00:31:07;99853.59;;;21.01;100.00
52137;BME280;38130;49.012;8.368;2022-08-19T00:33:34;99852.63;;;21.02;100.00
52137;BME280;38130;49.012;8.368;2022-08-19T00:36:02;99854.44;;;20.92;100.00
52137;BME280;38130;49.012;8.368;2022-08-19T00:38:30;99870.72;;;20.97;100.00
52137;BME280;38130;49.012;8.368;2022-08-19T00:41:03;99865.25;;;21.08;100.00
52137;BME280;38130;49.012;8.368;2022-08-19T00:43:31;99868.44;;;21.12;100.00
52137;BME280;38130;49.012;8.368;2022-08-19T00:45:58;99863.56;;;21.17;100.00
52137;BME280;38130;49.012;8.368;2022-08-19T00:48:25;99860.31;;;21.23;100.00
52137;BME280;38130;49.012;8.368;2022-08-19T00:50:52;99851.28;;;21.26;100.00
52137;BME280;38130;49.012;8.368;2022-08-19T00:53:24;99832.88;;;21.24;100.00
52137;BME280;38130;49.012;8.368;2022-08-19T00:55:53;99824.38;;;21.30;100.00
52137;BME280;38130;49.012;8.368;2022-08-19T00:58:24;99810.03;;;21.33;100.00
52137;BME280;38130;49.012;8.368;2022-08-19T01:00:53;99814.66;;;21.31;100.00
52137;BME280;38130;49.012;8.368;2022-08-19T01:03:23;99824.72;;;21.17;100.00
52137;BME280;38130;49.012;8.368;2022-08-19T01:05:50;99831.25;;;21.13;100.00
52137;BME280;38130;49.012;8.368;2022-08-19T01:08:19;99841.44;;;21.08;100.00
52137;BME280;38130;49.012;8.368;2022-08-19T01:10:50;99853.66;;;21.19;100.00
52137;BME280;38130;49.012;8.368;2022-08-19T01:13:20;99857.28;;;21.18;100.00
52137;BME280;38130;49.012;8.368;2022-08-19T01:15:56;99851.53;;;21.22;100.00
52137;BME280;38130;49.012;8.368;2022-08-19T01:18:24;99852.53;;;21.21;100.00
52137;BME280;38130;49.012;8.368;2022-08-19T01:20:54;99852.28;;;21.15;100.00
52137;BME280;38130;49.012;8.368;2022-08-19T01:23:22;99853.53;;;21.11;100.00
52137;BME280;38130;49.012;8.368;2022-08-19T01:26:14;99848.47;;;21.00;100.00
52137;BME280;38130;49.012;8.368;2022-08-19T01:28:43;99839.25;;;21.04;100.00
52137;BME280;38130;49.012;8.368;2022-08-19T01:31:19;99837.88;;;21.00;100.00
52137;BME280;38130;49.012;8.368;2022-08-19T01:33:54;99852.63;;;21.02;100.00
52137;BME280;38130;49.012;8.368;2022-08-19T01:38:57;99850.59;;;20.86;100.00
52137;BME280;38130;49.012;8.368;2022-08-19T01:41:24;99852.69;;;20.83;100.00
52137;BME280;38130;49.012;8.368;2022-08-19T01:43:52;99860.88;;;20.80;100.00
52137;BME280;38130;49.012;8.368;2022-08-19T01:46:39;99855.88;;;20.77;100.00
52137;BME280;38130;49.012;8.368;2022-08-19T01:49:06;99842.16;;;20.63;100.00
52137;BME280;38130;49.012;8.368;2022-08-19T01:51:33;99848.84;;;20.68;100.00
52137;BME280;38130;49.012;8.368;2022-08-19T01:54:06;99846.59;;;20.73;100.00
52137;BME280;38130;49.012;8.368;2022-08-19T01:56:33;99850.00;;;20.92;100.00
52137;BME280;38130;49.012;8.368;2022-08-19T01:59:02;99850.28;;;20.89;100.00
52137;BME280;38130;49.012;8.368;2022-08-19T02:01:30;99845.91;;;20.71;100.00
52137;BME280;38130;49.012;8.368;2022-08-19T02:03:58;99840.56;;;20.80;100.00
52137;BME280;38130;49.012;8.368;2022-08-19T02:06:27;99843.44;;;20.97;100.00
52137;BME280;38130;49.012;8.368;2022-08-19T02:08:54;99838.06;;;20.88;100.00
52137;BME280;38130;49.012;8.368;2022-08-19T02:11:31;99842.66;;;20.86;100.00
52137;BME280;38130;49.012;8.368;2022-08-19T02:14:02;99835.72;;;20.85;100.00
52137;BME280;38130;49.012;8.368;2022-08-19T02:16:29;99843.19;;;20.90;100.00
52137;BME280;38130;49.012;8.368;2022-08-19T02:18:57;99845.72;;;20.82;100.00
52137;BME280;38130;49.012;8.368;2022-08-19T02:21:26;99857.38;;;20.89;100.00
52137;BME280;38130;49.012;8.368;2022-08-19T02:23:53;99849.63;;;20.78;100.00
52137;BME280;38130;49.012;8.368;2022-08-19T02:26:21;99845.38;;;20.57;100.00
52137;BME280;38130;49.012;8.368;2022-08-19T02:28:48;99846.66;;;20.53;100.00
52137;BME280;38130;49.012;8.368;2022-08-19T02:31:17;99849.28;;;20.44;100.00
52137;BME280;38130;49.012;8.368;2022-08-19T02:33:44;99847.47;;;20.54;100.00
52137;BME280;38130;49.012;8.368;2022-08-19T02:36:12;99849.97;;;20.55;100.00
52137;BME280;38130;49.012;8.368;2022-08-19T02:38:41;99852.47;;;20.57;100.00
52137;BME280;38130;49.012;8.368;2022-08-19T02:41:18;99849.81;;;20.57;100.00
52137;BME280;38130;49.012;8.368;2022-08-19T02:43:46;99849.97;;;20.55;100.00
52137;BME280;38130;49.012;8.368;2022-08-19T02:46:33;99836.91;;;20.54;100.00
52137;BME280;38130;49.012;8.368;2022-08-19T02:49:03;99840.78;;;20.50;100.00
52137;BME280;38130;49.012;8.368;2022-08-19T02:51:40;99836.22;;;20.42;100.00
52137;BME280;38130;49.012;8.368;2022-08-19T02:54:08;99832.47;;;20.45;100.00
52137;BME280;38130;49.012;8.368;2022-08-19T02:56:37;99831.75;;;20.52;100.00
52137;BME280;38130;49.012;8.368;2022-08-19T02:59:05;99835.78;;;20.56;100.00
52137;BME280;38130;49.012;8.368;2022-08-19T03:01:38;99832.31;;;20.56;100.00
52137;BME280;38130;49.012;8.368;2022-08-19T03:04:07;99828.69;;;20.57;100.00
52137;BME280;38130;49.012;8.368;2022-08-19T03:06:43;99844.16;;;20.42;100.00
52137;BME280;38130;49.012;8.368;2022-08-19T03:09:11;99848.84;;;20.29;100.00
52137;BME280;38130;49.012;8.368;2022-08-19T03:11:38;99848.16;;;20.27;100.00
52137;BME280;38130;49.012;8.368;2022-08-19T03:14:06;99856.38;;;20.24;100.00
52137;BME280;38130;49.012;8.368;2022-08-19T03:16:36;99856.91;;;20.18;100.00
52137;BME280;38130;49.012;8.368;2022-08-19T03:19:05;99860.00;;;20.23;100.00
52137;BME280;38130;49.012;8.368;2022-08-19T03:21:33;99853.19;;;20.20;100.00
52137;BME280;38130;49.012;8.368;2022-08-19T03:24:06;99853.72;;;20.14;100.00
52137;BME280;38130;49.012;8.368;2022-08-19T03:26:33;99852.06;;;20.13;100.00
52137;BME280;38130;49.012;8.368;2022-08-19T03:29:04;99850.66;;;20.19;100.00
52137;BME280;38130;49.012;8.368;2022-08-19T03:31:31;99849.41;;;20.13;100.00
52137;BME280;38130;49.012;8.368;2022-08-19T03:34:15;99860.38;;;20.18;100.00
52137;BME280;38130;49.012;8.368;2022-08-19T03:36:41;99857.63;;;20.10;100.00
52137;BME280;38130;49.012;8.368;2022-08-19T03:39:09;99862.22;;;20.08;100.00
52137;BME280;38130;49.012;8.368;2022-08-19T03:41:38;99866.38;;;20.11;100.00
52137;BME280;38130;49.012;8.368;2022-08-19T03:44:13;99863.59;;;20.12;100.00
52137;BME280;38130;49.012;8.368;2022-08-19T03:46:45;99860.97;;;20.12;100.00
52137;BME280;38130;49.012;8.368;2022-08-19T03:49:11;99864.72;;;20.10;100.00
52137;BME280;38130;49.012;8.368;2022-08-19T03:51:41;99863.75;;;20.11;100.00
52137;BME280;38130;49.012;8.368;2022-08-19T03:54:11;99865.13;;;20.05;100.00
52137;BME280;38130;49.012;8.368;2022-08-19T03:56:38;99862.91;;;20.10;100.00
52137;BME280;38130;49.012;8.368;2022-08-19T03:59:07;99870.94;;;20.18;100.00
52137;BME280;38130;49.012;8.368;2022-08-19T04:01:34;99864.56;;;20.30;100.00
52137;BME280;38130;49.012;8.368;2022-08-19T04:04:01;99858.72;;;20.37;100.00
52137;BME280;38130;49.012;8.368;2022-08-19T04:06:32;99861.66;;;20.43;100.00
52137;BME280;38130;49.012;8.368;2022-08-19T04:09:03;99853.84;;;20.32;100.00
52137;BME280;38130;49.012;8.368;2022-08-19T04:11:34;99861.91;;;20.30;100.00
52137;BME280;38130;49.012;8.368;2022-08-19T04:14:12;99860.53;;;20.26;100.00
52137;BME280;38130;49.012;8.368;2022-08-19T04:16:39;99867.78;;;20.24;100.00
52137;BME280;38130;49.012;8.368;2022-08-19T04:19:06;99876.38;;;20.17;100.00
52137;BME280;38130;49.012;8.368;2022-08-19T04:21:33;99875.25;;;20.29;100.00
52137;BME280;38130;49.012;8.368;2022-08-19T04:24:00;99886.41;;;20.42;100.00
52137;BME280;38130;49.012;8.368;2022-08-19T04:26:32;99878.59;;;20.41;100.00
52137;BME280;38130;49.012;8.368;2022-08-19T04:29:02;99868.91;;;20.41;100.00
52137;BME280;38130;49.012;8.368;2022-08-19T04:31:33;99869.00;;;20.30;100.00
52137;BME280;38130;49.012;8.368;2022-08-19T04:34:06;99871.78;;;20.19;100.00
52137;BME280;38130;49.012;8.368;2022-08-19T04:36:35;99874.56;;;20.17;100.00
52137;BME280;38130;49.012;8.368;2022-08-19T04:39:07;99862.75;;;20.12;100.00
52137;BME280;38130;49.012;8.368;2022-08-19T04:41:35;99864.16;;;20.06;100.00
52137;BME280;38130;49.012;8.368;2022-08-19T04:44:36;99867.91;;;20.13;100.00
52137;BME280;38130;49.012;8.368;2022-08-19T04:47:11;99869.56;;;20.14;100.00
52137;BME280;38130;49.012;8.368;2022-08-19T04:49:38;99866.91;;;20.33;100.00
52137;BME280;38130;49.012;8.368;2022-08-19T04:52:04;99874.69;;;20.35;100.00
52137;BME280;38130;49.012;8.368;2022-08-19T04:54:31;99872.91;;;20.45;100.00
52137;BME280;38130;49.012;8.368;2022-08-19T04:57:05;99879.44;;;20.51;100.00
52137;BME280;38130;49.012;8.368;2022-08-19T04:59:33;99885.00;;;20.57;100.00
52137;BME280;38130;49.012;8.368;2022-08-19T05:02:00;99885.69;;;20.59;100.00
52137;BME280;38130;49.012;8.368;2022-08-19T05:04:26;99891.13;;;20.68;100.00
52137;BME280;38130;49.012;8.368;2022-08-19T05:06:54;99888.63;;;20.56;100.00
52137;BME280;38130;49.012;8.368;2022-08-19T05:09:27;99894.59;;;20.58;100.00
52137;BME280;38130;49.012;8.368;2022-08-19T05:12:14;99883.34;;;20.56;100.00
52137;BME280;38130;49.012;8.368;2022-08-19T05:14:40;99884.03;;;20.58;100.00
52137;BME280;38130;49.012;8.368;2022-08-19T05:17:07;99884.19;;;20.57;100.00
52137;BME280;38130;49.012;8.368;2022-08-19T05:19:53;99887.78;;;20.56;100.00
52137;BME280;38130;49.012;8.368;2022-08-19T05:22:38;99909.38;;;20.51;100.00
52137;BME280;38130;49.012;8.368;2022-08-19T05:25:09;99906.00;;;20.49;100.00
52137;BME280;38130;49.012;8.368;2022-08-19T05:27:38;99911.16;;;20.51;100.00
52137;BME280;38130;49.012;8.368;2022-08-19T05:30:05;99909.38;;;20.51;100.00
52137;BME280;38130;49.012;8.368;2022-08-19T05:32:32;99922.28;;;20.54;100.00
52137;BME280;38130;49.012;8.368;2022-08-19T05:34:58;99919.78;;;20.43;100.00
52137;BME280;38130;49.012;8.368;2022-08-19T05:37:25;99922.84;;;20.58;100.00
52137;BME280;38130;49.012;8.368;2022-08-19T05:39:53;99930.78;;;20.68;100.00
52137;BME280;38130;49.012;8.368;2022-08-19T05:42:21;99933.94;;;20.71;100.00
52137;BME280;38130;49.012;8.368;2022-08-19T05:44:50;99940.19;;;20.80;100.00
52137;BME280;38130;49.012;8.368;2022-08-19T05:47:17;99943.41;;;20.83;100.00
52137;BME280;38130;49.012;8.368;2022-08-19T05:49:46;99956.34;;;20.86;100.00
52137;BME280;38130;49.012;8.368;2022-08-19T05:52:15;99955.06;;;20.81;100.00
52137;BME280;38130;49.012;8.368;2022-08-19T05:54:45;99963.88;;;20.72;100.00
52137;BME280;38130;49.012;8.368;2022-08-19T05:57:18;99960.53;;;20.70;100.00
52137;BME280;38130;49.012;8.368;2022-08-19T05:59:45;99967.63;;;20.69;100.00
52137;BME280;38130;49.012;8.368;2022-08-19T06:02:14;99968.88;;;20.75;100.00
52137;BME280;38130;49.012;8.368;2022-08-19T06:04:40;99967.88;;;20.66;100.00
52137;BME280;38130;49.012;8.368;2022-08-19T06:07:09;99967.34;;;20.72;100.00
52137;BME280;38130;49.012;8.368;2022-08-19T06:09:39;99962.16;;;20.80;100.00
52137;BME280;38130;49.012;8.368;2022-08-19T06:12:09;99963.44;;;20.86;100.00
52137;BME280;38130;49.012;8.368;2022-08-19T06:14:36;99970.78;;;20.92;100.00
52137;BME280;38130;49.012;8.368;2022-08-19T06:17:07;99964.56;;;20.83;100.00
52137;BME280;38130;49.012;8.368;2022-08-19T06:19:33;99961.06;;;20.83;100.00
52137;BME280;38130;49.012;8.368;2022-08-19T06:22:06;99968.72;;;20.86;100.00
52137;BME280;38130;49.012;8.368;2022-08-19T06:24:34;99970.38;;;20.87;100.00
52137;BME280;38130;49.012;8.368;2022-08-19T06:27:02;99964.66;;;20.91;100.00
52137;BME280;38130;49.012;8.368;2022-08-19T06:29:29;99972.47;;;20.83;100.00
52137;BME280;38130;49.012;8.368;2022-08-19T06:31:58;99958.97;;;20.86;100.00
52137;BME280;38130;49.012;8.368;2022-08-19T06:34:28;99967.44;;;20.80;100.00
52137;BME280;38130;49.012;8.368;2022-08-19T06:36:56;99977.63;;;20.85;100.00
52137;BME280;38130;49.012;8.368;2022-08-19T06:39:26;99981.22;;;20.93;100.00
52137;BME280;38130;49.012;8.368;2022-08-19T06:41:55;99979.41;;;21.04;100.00
52137;BME280;38130;49.012;8.368;2022-08-19T06:44:26;99986.06;;;20.98;100.00
52137;BME280;38130;49.012;8.368;2022-08-19T06:46:54;99984.84;;;21.02;100.00
52137;BME280;38130;49.012;8.368;2022-08-19T06:49:22;99982.84;;;21.14;100.00
52137;BME280;38130;49.012;8.368;2022-08-19T06:51:49;99975.88;;;21.13;100.00
52137;BME280;38130;49.012;8.368;2022-08-19T06:54:18;99982.75;;;20.96;100.00
52137;BME280;38130;49.012;8.368;2022-08-19T06:56:46;99975.78;;;20.95;100.00
52137;BME280;38130;49.012;8.368;2022-08-19T06:59:15;99985.56;;;20.85;100.00
52137;BME280;38130;49.012;8.368;2022-08-19T07:01:45;99984.59;;;20.86;100.00
52137;BME280;38130;49.012;8.368;2022-08-19T07:04:20;99986.34;;;20.95;100.00
52137;BME280;38130;49.012;8.368;2022-08-19T07:06:48;99981.06;;;21.05;100.00
52137;BME280;38130;49.012;8.368;2022-08-19T07:09:20;99993.88;;;21.00;100.00
52137;BME280;38130;49.012;8.368;2022-08-19T07:11:49;99992.19;;;20.99;100.00
52137;BME280;38130;49.012;8.368;2022-08-19T07:14:18;99991.50;;;21.06;100.00
52137;BME280;38130;49.012;8.368;2022-08-19T07:16:48;99983.56;;;21.16;100.00
52137;BME280;38130;49.012;8.368;2022-08-19T07:19:16;99987.84;;;21.27;100.00
52137;BME280;38130;49.012;8.368;2022-08-19T07:21:45;99990.72;;;21.43;100.00
52137;BME280;38130;49.012;8.368;2022-08-19T07:24:12;99988.78;;;21.45;100.00
52137;BME280;38130;49.012;8.368;2022-08-19T07:26:41;99984.88;;;21.49;100.00
52137;BME280;38130;49.012;8.368;2022-08-19T07:29:09;99990.16;;;21.49;100.00
52137;BME280;38130;49.012;8.368;2022-08-19T07:31:36;99985.84;;;21.48;100.00
52137;BME280;38130;49.012;8.368;2022-08-19T07:34:05;99983.44;;;21.55;100.00
52137;BME280;38130;49.012;8.368;2022-08-19T07:36:38;99977.38;;;21.72;100.00
52137;BME280;38130;49.012;8.368;2022-08-19T07:39:18;99978.19;;;21.82;100.00
52137;BME280;38130;49.012;8.368;2022-08-19T07:41:46;99975.22;;;21.85;100.00
52137;BME280;38130;49.012;8.368;2022-08-19T07:44:14;99975.47;;;21.92;100.00
52137;BME280;38130;49.012;8.368;2022-08-19T07:46:45;99977.53;;;21.98;100.00
52137;BME280;38130;49.012;8.368;2022-08-19T07:49:17;99980.41;;;22.04;100.00
52137;BME280;38130;49.012;8.368;2022-08-19T07:51:47;99984.88;;;22.04;100.00
52137;BME280;38130;49.012;8.368;2022-08-19T07:54:15;99985.03;;;22.02;100.00
52137;BME280;38130;49.012;8.368;2022-08-19T07:56:42;99981.69;;;22.10;100.00
52137;BME280;38130;49.012;8.368;2022-08-19T07:59:08;99983.41;;;22.19;100.00
52137;BME280;38130;49.012;8.368;2022-08-19T08:01:36;99983.78;;;22.24;100.00
52137;BME280;38130;49.012;8.368;2022-08-19T08:04:07;99989.91;;;22.25;98.61
52137;BME280;38130;49.012;8.368;2022-08-19T08:06:52;99992.50;;;22.34;98.68
52137;BME280;38130;49.012;8.368;2022-08-19T08:09:40;99992.31;;;22.46;98.21
52137;BME280;38130;49.012;8.368;2022-08-19T08:12:17;99987.53;;;22.49;96.55
52137;BME280;38130;49.012;8.368;2022-08-19T08:15:01;99977.91;;;22.48;96.44
52137;BME280;38130;49.012;8.368;2022-08-19T08:17:34;99980.19;;;22.61;96.00
52137;BME280;38130;49.012;8.368;2022-08-19T08:20:17;99993.50;;;22.69;95.04
52137;BME280;38130;49.012;8.368;2022-08-19T08:22:45;99985.31;;;22.80;95.03
52137;BME280;38130;49.012;8.368;2022-08-19T08:25:30;99993.44;;;22.96;92.66
52137;BME280;38130;49.012;8.368;2022-08-19T08:27:59;99983.84;;;23.04;91.94
52137;BME280;38130;49.012;8.368;2022-08-19T08:30:28;99983.25;;;23.10;92.33
52137;BME280;38130;49.012;8.368;2022-08-19T08:32:58;99989.13;;;23.21;91.38
52137;BME280;38130;49.012;8.368;2022-08-19T08:35:27;99998.94;;;23.29;90.56
52137;BME280;38130;49.012;8.368;2022-08-19T08:37:54;99998.44;;;23.25;89.21
52137;BME280;38130;49.012;8.368;2022-08-19T08:40:23;99991.34;;;23.34;88.33
52137;BME280;38130;49.012;8.368;2022-08-19T08:45:42;99996.03;;;23.40;88.09
52137;BME280;38130;49.012;8.368;2022-08-19T08:48:44;100004.34;;;23.45;88.03
52137;BME280;38130;49.012;8.368;2022-08-19T08:51:25;99996.72;;;23.42;88.48
52137;BME280;38130;49.012;8.368;2022-08-19T08:54:02;99999.41;;;23.50;87.94
52137;BME280;38130;49.012;8.368;2022-08-19T08:56:30;99997.56;;;23.69;86.63
52137;BME280;38130;49.012;8.368;2022-08-19T08:59:10;99990.66;;;23.84;85.65
52137;BME280;38130;49.012;8.368;2022-08-19T09:01:38;100005.13;;;23.98;83.47
52137;BME280;38130;49.012;8.368;2022-08-19T09:04:06;100008.53;;;24.16;82.94
52137;BME280;38130;49.012;8.368;2022-08-19T09:06:50;99995.97;;;24.59;80.20
52137;BME280;38130;49.012;8.368;2022-08-19T09:09:38;99994.47;;;25.21;75.94
52137;BME280;38130;49.012;8.368;2022-08-19T09:14:59;100001.34;;;25.71;71.35
52137;BME280;38130;49.012;8.368;2022-08-19T09:17:29;100001.50;;;25.14;73.82
52137;BME280;38130;49.012;8.368;2022-08-19T09:22:35;100003.81;;;25.25;73.66
52137;BME280;38130;49.012;8.368;2022-08-19T09:25:05;100003.22;;;25.54;73.08
52137;BME280;38130;49.012;8.368;2022-08-19T09:27:31;100008.94;;;25.35;73.41
52137;BME280;38130;49.012;8.368;2022-08-19T09:30:12;99995.63;;;25.43;72.58
52137;BME280;38130;49.012;8.368;2022-08-19T09:32:39;100000.13;;;25.34;69.83
52137;BME280;38130;49.012;8.368;2022-08-19T09:35:09;99994.44;;;25.37;69.16
52137;BME280;38130;49.012;8.368;2022-08-19T09:37:35;99993.97;;;25.42;69.13
52137;BME280;38130;49.012;8.368;2022-08-19T09:40:04;99994.38;;;25.70;67.61
52137;BME280;38130;49.012;8.368;2022-08-19T09:42:30;99994.38;;;26.32;62.29
52137;BME280;38130;49.012;8.368;2022-08-19T09:45:01;99994.19;;;26.88;62.00
52137;BME280;38130;49.012;8.368;2022-08-19T09:47:30;99985.59;;;27.30;59.95
52137;BME280;38130;49.012;8.368;2022-08-19T09:49:57;99988.03;;;27.39;58.36
52137;BME280;38130;49.012;8.368;2022-08-19T09:52:24;99987.75;;;27.20;58.24
52137;BME280;38130;49.012;8.368;2022-08-19T09:54:58;99990.59;;;27.18;57.24
52137;BME280;38130;49.012;8.368;2022-08-19T09:57:24;99993.94;;;27.50;56.54
52137;BME280;38130;49.012;8.368;2022-08-19T09:59:51;100000.78;;;27.67;55.17
52137;BME280;38130;49.012;8.368;2022-08-19T10:02:17;99998.47;;;27.79;53.65
52137;BME280;38130;49.012;8.368;2022-08-19T10:04:48;99990.16;;;27.73;53.85
52137;BME280;38130;49.012;8.368;2022-08-19T10:07:33;100001.41;;;27.69;54.50
52137;BME280;38130;49.012;8.368;2022-08-19T10:10:05;100006.66;;;27.48;55.62
52137;BME280;38130;49.012;8.368;2022-08-19T10:12:33;99998.72;;;27.39;55.92
52137;BME280;38130;49.012;8.368;2022-08-19T10:15:00;99999.25;;;27.35;56.78
52137;BME280;38130;49.012;8.368;2022-08-19T10:17:27;100003.50;;;27.14;56.49
52137;BME280;38130;49.012;8.368;2022-08-19T10:19:59;99997.78;;;27.18;56.81
52137;BME280;38130;49.012;8.368;2022-08-19T10:22:26;100004.94;;;27.02;57.67
52137;BME280;38130;49.012;8.368;2022-08-19T10:24:53;100005.59;;;26.96;57.30
52137;BME280;38130;49.012;8.368;2022-08-19T10:27:20;99998.47;;;27.11;55.76
52137;BME280;38130;49.012;8.368;2022-08-19T10:29:46;100001.50;;;27.46;54.78
52137;BME280;38130;49.012;8.368;2022-08-19T10:32:14;99996.69;;;27.41;55.20
52137;BME280;38130;49.012;8.368;2022-08-19T10:34:41;100003.69;;;27.42;54.25
52137;BME280;38130;49.012;8.368;2022-08-19T10:37:14;99996.44;;;27.66;54.06
52137;BME280;38130;49.012;8.368;2022-08-19T10:39:54;99985.56;;;27.67;53.15
52137;BME280;38130;49.012;8.368;2022-08-19T10:42:21;99990.13;;;27.59;53.57
52137;BME280;38130;49.012;8.368;2022-08-19T10:44:47;99976.78;;;27.73;53.32
52137;BME280;38130;49.012;8.368;2022-08-19T10:47:17;99978.81;;;27.57;53.78
52137;BME280;38130;49.012;8.368;2022-08-19T10:49:53;99970.94;;;27.99;52.29
52137;BME280;38130;49.012;8.368;2022-08-19T10:52:43;99976.44;;;28.13;51.80
52137;BME280;38130;49.012;8.368;2022-08-19T10:55:15;99977.41;;;28.41;51.67
52137;BME280;38130;49.012;8.368;2022-08-19T10:58:01;99966.09;;;28.67;50.82
52137;BME280;38130;49.012;8.368;2022-08-19T11:00:28;99965.16;;;28.75;51.04
52137;BME280;38130;49.012;8.368;2022-08-19T11:02:56;99970.63;;;28.67;51.29
52137;BME280;38130;49.012;8.368;2022-08-19T11:05:23;99958.66;;;28.62;50.61
52137;BME280;38130;49.012;8.368;2022-08-19T11:07:50;99965.28;;;28.45;50.61
52137;BME280;38130;49.012;8.368;2022-08-19T11:10:18;99958.19;;;28.16;51.31
52137;BME280;38130;49.012;8.368;2022-08-19T11:12:47;99952.63;;;27.96;52.28
52137;BME280;38130;49.012;8.368;2022-08-19T11:15:14;99949.72;;;28.13;52.42
52137;BME280;38130;49.012;8.368;2022-08-19T11:17:41;99948.94;;;28.19;51.94
52137;BME280;38130;49.012;8.368;2022-08-19T11:20:11;99948.41;;;28.09;52.00
52137;BME280;38130;49.012;8.368;2022-08-19T11:22:39;99950.22;;;27.87;52.92
52137;BME280;38130;49.012;8.368;2022-08-19T11:25:09;99953.38;;;27.75;53.75
52137;BME280;38130;49.012;8.368;2022-08-19T11:27:40;99943.56;;;27.47;53.81
52137;BME280;38130;49.012;8.368;2022-08-19T11:30:12;99941.72;;;27.47;54.21
52137;BME280;38130;49.012;8.368;2022-08-19T11:32:41;99942.34;;;27.49;54.17
52137;BME280;38130;49.012;8.368;2022-08-19T11:35:13;99936.91;;;27.28;54.72
52137;BME280;38130;49.012;8.368;2022-08-19T11:37:40;99931.22;;;27.16;55.27
52137;BME280;38130;49.012;8.368;2022-08-19T11:40:07;99933.50;;;27.19;54.05
52137;BME280;38130;49.012;8.368;2022-08-19T11:42:34;99925.00;;;27.45;54.67
52137;BME280;38130;49.012;8.368;2022-08-19T11:45:19;99920.28;;;27.77;53.02
52137;BME280;38130;49.012;8.368;2022-08-19T11:47:45;99919.91;;;27.94;52.30
52137;BME280;38130;49.012;8.368;2022-08-19T11:50:14;99920.72;;;27.95;51.98
52137;BME280;38130;49.012;8.368;2022-08-19T11:52:41;99931.44;;;27.95;52.09
52137;BME280;38130;49.012;8.368;2022-08-19T11:55:09;99937.34;;;28.26;51.00
52137;BME280;38130;49.012;8.368;2022-08-19T11:57:35;99934.53;;;28.34;50.02
52137;BME280;38130;49.012;8.368;2022-08-19T12:00:03;99934.59;;;28.41;49.12
52137;BME280;38130;49.012;8.368;2022-08-19T12:02:32;99930.25;;;28.40;48.40
52137;BME280;38130;49.012;8.368;2022-08-19T12:04:58;99940.59;;;28.43;48.18
52137;BME280;38130;49.012;8.368;2022-08-19T12:07:28;99937.66;;;28.23;49.15
52137;BME280;38130;49.012;8.368;2022-08-19T12:09:57;99930.34;;;27.74;50.58
52137;BME280;38130;49.012;8.368;2022-08-19T12:12:24;99936.69;;;27.59;50.62
52137;BME280;38130;49.012;8.368;2022-08-19T12:14:51;99945.28;;;27.39;51.47
52137;BME280;38130;49.012;8.368;2022-08-19T12:17:24;99954.41;;;27.30;52.29
52137;BME280;38130;49.012;8.368;2022-08-19T12:19:51;99938.66;;;27.21;52.39
52137;BME280;38130;49.012;8.368;2022-08-19T12:22:18;99945.47;;;27.08;52.97
52137;BME280;38130;49.012;8.368;2022-08-19T12:24:44;99934.13;;;27.06;54.30
52137;BME280;38130;49.012;8.368;2022-08-19T12:27:11;99936.16;;;27.04;54.96
52137;BME280;38130;49.012;8.368;2022-08-19T12:29:38;99937.78;;;26.91;54.60
52137;BME280;38130;49.012;8.368;2022-08-19T12:32:05;99939.31;;;26.70;54.95
52137;BME280;38130;49.012;8.368;2022-08-19T12:34:32;99937.34;;;26.64;55.68
52137;BME280;38130;49.012;8.368;2022-08-19T12:37:01;99939.94;;;26.72;55.58
52137;BME280;38130;49.012;8.368;2022-08-19T12:39:28;99940.59;;;26.74;55.94
52137;BME280;38130;49.012;8.368;2022-08-19T12:41:54;99946.03;;;26.81;54.88
52137;BME280;38130;49.012;8.368;2022-08-19T12:44:22;99940.34;;;26.84;53.25
52137;BME280;38130;49.012;8.368;2022-08-19T12:46:55;99938.03;;;26.96;53.52
52137;BME280;38130;49.012;8.368;2022-08-19T12:49:22;99932.31;;;27.22;52.04
52137;BME280;38130;49.012;8.368;2022-08-19T12:52:11;99937.84;;;27.50;49.90
52137;BME280;38130;49.012;8.368;2022-08-19T12:54:42;99939.19;;;27.60;48.38
52137;BME280;38130;49.012;8.368;2022-08-19T12:57:10;99934.38;;;27.85;46.91
52137;BME280;38130;49.012;8.368;2022-08-19T12:59:38;99930.66;;;28.01;47.12
52137;BME280;38130;49.012;8.368;2022-08-19T13:02:06;99927.50;;;28.12;46.29
52137;BME280;38130;49.012;8.368;2022-08-19T13:04:34;99933.03;;;28.11;46.62
52137;BME280;38130;49.012;8.368;2022-08-19T13:07:03;99924.72;;;28.05;46.38
52137;BME280;38130;49.012;8.368;2022-08-19T13:09:29;99928.50;;;28.11;45.54
52137;BME280;38130;49.012;8.368;2022-08-19T13:11:56;99927.78;;;28.24;44.93
52137;BME280;38130;49.012;8.368;2022-08-19T13:14:23;99924.47;;;28.37;44.39
52137;BME280;38130;49.012;8.368;2022-08-19T13:16:52;99927.31;;;28.35;44.38
52137;BME280;38130;49.012;8.368;2022-08-19T13:19:18;99931.81;;;28.56;42.29